createdAt,value
2023-04-05T00:00:14.122Z,0.90
2023-04-05T00:02:42.295Z,1.13
2023-04-05T00:05:12.066Z,1.20
2023-04-05T00:07:41.409Z,0.63
2023-04-05T00:10:10.108Z,0.77
2023-04-05T00:12:38.129Z,1.00
2023-04-05T00:15:06.733Z,1.60
2023-04-05T00:17:35.489Z,1.63
2023-04-05T00:20:07.301Z,1.40
2023-04-05T00:22:36.192Z,1.70
2023-04-05T00:25:06.045Z,2.60
2023-04-05T00:27:34.071Z,2.30
2023-04-05T00:30:02.220Z,2.20
2023-04-05T00:32:30.162Z,3.40
2023-04-05T00:34:58.259Z,3.07
2023-04-05T00:37:26.353Z,2.20
2023-04-05T00:39:55.187Z,3.20
2023-04-05T00:42:24.552Z,2.40
2023-04-05T00:44:52.492Z,3.20
2023-04-05T00:47:20.455Z,2.73
2023-04-05T00:49:48.440Z,2.30
2023-04-05T00:52:16.680Z,2.17
2023-04-05T00:54:44.683Z,2.73
2023-04-05T00:57:12.751Z,1.87
2023-04-05T00:59:42.170Z,2.70
2023-04-05T01:02:13.564Z,2.97
2023-04-05T01:04:50.394Z,2.90
2023-04-05T01:07:22.144Z,2.93
2023-04-05T01:09:54.506Z,3.73
2023-04-05T01:12:22.685Z,3.00
2023-04-05T01:14:52.892Z,2.90
2023-04-05T01:17:22.351Z,3.70
2023-04-05T01:19:53.343Z,3.37
2023-04-05T01:22:53.511Z,3.70
2023-04-05T01:25:30.843Z,4.70
2023-04-05T01:28:14.164Z,4.17
2023-04-05T01:30:43.939Z,3.70
2023-04-05T01:33:15.324Z,5.00
2023-04-05T01:35:47.585Z,5.80
2023-04-05T01:38:17.866Z,6.00
2023-04-05T01:40:45.851Z,5.47
2023-04-05T01:43:14.830Z,5.17
2023-04-05T01:45:44.380Z,5.50
2023-04-05T01:48:12.331Z,5.50
2023-04-05T01:50:40.773Z,4.90
2023-04-05T01:53:08.956Z,5.40
2023-04-05T01:55:36.975Z,4.97
2023-04-05T01:58:04.958Z,4.10
2023-04-05T02:00:32.957Z,4.20
2023-04-05T02:03:02.372Z,4.77
2023-04-05T02:05:30.476Z,5.97
2023-04-05T02:07:58.412Z,5.07
2023-04-05T02:10:26.444Z,4.23
2023-04-05T02:12:54.606Z,5.47
2023-04-05T02:15:22.584Z,5.00
2023-04-05T02:17:54.140Z,6.20
2023-04-05T02:20:26.006Z,5.03
2023-04-05T02:22:54.037Z,5.30
2023-04-05T02:25:22.077Z,4.77
2023-04-05T02:27:50.017Z,4.60
2023-04-05T02:30:18.001Z,5.70
2023-04-05T02:32:46.085Z,5.90
2023-04-05T02:35:14.162Z,7.23
2023-04-05T02:37:43.543Z,4.90
2023-04-05T02:40:15.148Z,4.97
2023-04-05T02:42:43.233Z,5.60
2023-04-05T02:45:11.829Z,6.10
2023-04-05T02:47:39.879Z,5.50
2023-04-05T02:50:09.322Z,5.97
2023-04-05T02:52:38.079Z,7.00
2023-04-05T02:55:07.936Z,6.33
2023-04-05T02:57:35.886Z,4.93
2023-04-05T03:00:05.310Z,5.03
2023-04-05T03:02:33.357Z,4.87
2023-04-05T03:05:02.477Z,5.63
2023-04-05T03:07:30.583Z,5.50
2023-04-05T03:09:58.527Z,5.97
2023-04-05T03:12:28.022Z,5.87
2023-04-05T03:14:56.112Z,5.60
2023-04-05T03:17:24.105Z,4.60
2023-04-05T03:19:52.050Z,5.27
2023-04-05T03:22:20.052Z,5.37
2023-04-05T03:24:48.011Z,5.70
2023-04-05T03:27:15.959Z,5.47
2023-04-05T03:29:45.345Z,5.50
2023-04-05T03:32:14.032Z,6.03
2023-04-05T03:34:42.026Z,7.27
2023-04-05T03:37:09.977Z,8.43
2023-04-05T03:39:37.922Z,9.47
2023-04-05T03:42:05.933Z,9.47
2023-04-05T03:44:33.928Z,6.50
2023-04-05T03:47:03.291Z,6.60
2023-04-05T03:49:31.271Z,5.63
2023-04-05T03:51:59.244Z,5.80
2023-04-05T03:54:27.204Z,6.43
2023-04-05T03:56:55.347Z,10.07
2023-04-05T03:59:23.340Z,6.70
2023-04-05T04:01:51.397Z,6.47
2023-04-05T04:04:21.237Z,11.47
2023-04-05T04:06:49.228Z,8.13
2023-04-05T04:09:17.187Z,5.97
2023-04-05T04:11:45.143Z,8.07
2023-04-05T04:14:13.103Z,7.40
2023-04-05T04:16:41.129Z,11.10
2023-04-05T04:19:09.140Z,10.33
2023-04-05T04:21:39.501Z,19.80
2023-04-05T04:24:07.880Z,17.90
2023-04-05T04:26:37.521Z,12.57
2023-04-05T04:29:06.744Z,8.20
2023-04-05T04:31:34.830Z,9.43
2023-04-05T04:34:03.453Z,10.50
2023-04-05T04:36:39.253Z,13.70
2023-04-05T04:39:08.726Z,9.33
2023-04-05T04:41:38.341Z,7.80
2023-04-05T04:44:06.418Z,8.83
2023-04-05T04:46:43.251Z,9.60
2023-04-05T04:49:11.306Z,10.57
2023-04-05T04:51:39.305Z,11.23
2023-04-05T04:54:08.606Z,9.93
2023-04-05T04:56:36.553Z,9.70
2023-04-05T04:59:04.570Z,7.20
2023-04-05T05:01:34.243Z,6.93
2023-04-05T05:04:02.437Z,6.77
2023-04-05T05:06:31.405Z,5.70
2023-04-05T05:08:59.402Z,6.50
2023-04-05T05:11:29.086Z,7.33
2023-04-05T05:13:57.046Z,10.47
2023-04-05T05:16:25.093Z,7.13
2023-04-05T05:18:53.071Z,9.40
2023-04-05T05:21:21.004Z,8.10
2023-04-05T05:23:49.266Z,6.40
2023-04-05T05:26:17.184Z,6.17
2023-04-05T05:28:48.944Z,7.17
2023-04-05T05:31:17.943Z,6.27
2023-04-05T05:33:49.578Z,6.27
2023-04-05T05:36:20.010Z,4.93
2023-04-05T05:38:49.183Z,6.50
2023-04-05T05:41:17.174Z,6.43
2023-04-05T05:43:46.467Z,5.27
2023-04-05T05:46:14.479Z,5.43
2023-04-05T05:48:42.796Z,5.30
2023-04-05T05:51:10.930Z,5.37
2023-04-05T05:53:39.227Z,4.23
2023-04-05T05:56:07.749Z,4.97
2023-04-05T05:58:35.687Z,3.97
2023-04-05T06:01:05.040Z,5.13
2023-04-05T06:03:33.840Z,4.37
2023-04-05T06:06:03.212Z,4.00
2023-04-05T06:08:31.203Z,4.80
2023-04-05T06:10:59.215Z,4.37
2023-04-05T06:13:27.271Z,2.87
2023-04-05T06:15:55.273Z,4.80
2023-04-05T06:18:24.632Z,4.27
2023-04-05T06:20:52.567Z,4.30
2023-04-05T06:23:20.488Z,5.07
2023-04-05T06:25:48.405Z,5.00
2023-04-05T06:28:16.372Z,3.80
2023-04-05T06:30:45.093Z,6.30
2023-04-05T06:33:13.163Z,4.27
2023-04-05T06:35:42.540Z,3.00
2023-04-05T06:38:10.581Z,2.83
2023-04-05T06:40:38.681Z,3.00
2023-04-05T06:43:07.187Z,2.80
2023-04-05T06:45:35.119Z,2.80
2023-04-05T06:48:03.151Z,3.23
2023-04-05T06:50:31.170Z,3.30
2023-04-05T06:53:00.655Z,5.23
2023-04-05T06:55:29.814Z,3.80
2023-04-05T06:57:57.782Z,4.10
2023-04-05T07:00:25.977Z,2.37
2023-04-05T07:02:53.943Z,2.73
2023-04-05T07:05:21.922Z,3.17
2023-04-05T07:07:49.844Z,3.90
2023-04-05T07:10:19.378Z,3.50
2023-04-05T07:12:47.312Z,2.17
2023-04-05T07:15:15.392Z,2.10
2023-04-05T07:17:43.391Z,2.70
2023-04-05T07:20:12.639Z,2.93
2023-04-05T07:22:40.654Z,3.10
2023-04-05T07:25:09.850Z,2.30
2023-04-05T07:27:39.854Z,2.40
2023-04-05T07:30:09.077Z,2.20
2023-04-05T07:32:37.122Z,2.87
2023-04-05T07:35:05.632Z,2.50
2023-04-05T07:37:33.648Z,2.03
2023-04-05T07:40:01.557Z,2.17
2023-04-05T07:42:29.514Z,1.50
2023-04-05T07:44:58.836Z,1.83
2023-04-05T07:47:27.445Z,2.10
2023-04-05T07:49:55.393Z,3.43
2023-04-05T07:52:23.308Z,3.40
2023-04-05T07:54:52.240Z,2.90
2023-04-05T07:57:20.279Z,2.83
2023-04-05T07:59:51.016Z,2.83
2023-04-05T08:02:20.445Z,2.60
2023-04-05T08:04:48.483Z,3.53
2023-04-05T08:07:16.479Z,2.80
2023-04-05T08:09:44.461Z,2.40
2023-04-05T08:12:12.542Z,2.83
2023-04-05T08:14:40.511Z,2.23
2023-04-05T08:17:08.487Z,4.00
2023-04-05T08:19:38.970Z,2.60
2023-04-05T08:22:06.967Z,3.27
2023-04-05T08:24:35.104Z,3.07
2023-04-05T08:27:03.059Z,3.10
2023-04-05T08:29:31.082Z,3.00
2023-04-05T08:31:59.410Z,3.10
2023-04-05T08:34:27.454Z,2.90
2023-04-05T08:36:58.933Z,3.17
2023-04-05T08:39:26.908Z,3.40
2023-04-05T08:42:01.951Z,3.07
2023-04-05T08:44:30.312Z,5.40
2023-04-05T08:46:58.895Z,4.17
2023-04-05T08:49:26.893Z,4.10
2023-04-05T08:51:56.271Z,3.23
2023-04-05T08:54:24.228Z,2.17
2023-04-05T08:56:54.338Z,3.87
2023-04-05T08:59:22.301Z,3.70
2023-04-05T09:01:50.329Z,2.80
2023-04-05T09:04:19.619Z,3.37
2023-04-05T09:06:47.617Z,3.50
2023-04-05T09:09:17.158Z,2.53
2023-04-05T09:11:45.238Z,2.40
2023-04-05T09:14:13.191Z,3.13
2023-04-05T09:16:42.421Z,2.80
2023-04-05T09:19:10.798Z,3.60
2023-04-05T09:22:01.207Z,3.27
2023-04-05T09:24:35.428Z,3.53
2023-04-05T09:27:07.380Z,2.93
2023-04-05T09:29:35.505Z,4.30
2023-04-05T09:32:04.115Z,2.97
2023-04-05T09:34:33.243Z,4.10
2023-04-05T09:37:01.451Z,2.47
2023-04-05T09:39:29.959Z,3.73
2023-04-05T09:42:11.947Z,4.70
2023-04-05T09:44:53.062Z,4.40
2023-04-05T09:47:21.439Z,4.50
2023-04-05T09:49:49.367Z,3.17
2023-04-05T09:52:21.645Z,4.77
2023-04-05T09:54:49.810Z,3.40
2023-04-05T09:57:19.631Z,5.17
2023-04-05T09:59:47.878Z,3.20
2023-04-05T10:02:16.041Z,4.33
2023-04-05T10:04:44.898Z,6.97
2023-04-05T10:07:14.278Z,5.73
2023-04-05T10:09:42.532Z,2.83
2023-04-05T10:12:11.372Z,3.13
2023-04-05T10:14:40.736Z,3.00
2023-04-05T10:17:13.951Z,3.30
2023-04-05T10:19:56.807Z,2.30
2023-04-05T10:22:26.223Z,6.27
2023-04-05T10:24:55.606Z,6.60
2023-04-05T10:27:27.357Z,3.97
2023-04-05T10:30:04.053Z,5.23
2023-04-05T10:32:35.480Z,8.27
2023-04-05T10:35:08.367Z,3.37
2023-04-05T10:37:43.600Z,4.23
2023-04-05T10:40:11.600Z,5.97
2023-04-05T10:42:43.363Z,2.20
2023-04-05T10:45:15.548Z,3.60
2023-04-05T10:47:46.430Z,2.20
2023-04-05T10:50:17.775Z,3.90
2023-04-05T10:52:45.947Z,3.93
2023-04-05T10:55:14.025Z,2.47
2023-04-05T10:57:41.986Z,3.33
2023-04-05T11:00:12.916Z,3.17
2023-04-05T11:02:41.009Z,2.03
2023-04-05T11:05:19.562Z,2.83
2023-04-05T11:07:49.639Z,3.40
2023-04-05T11:10:18.408Z,3.60
2023-04-05T11:13:08.846Z,4.20
2023-04-05T11:15:38.929Z,4.00
2023-04-05T11:18:08.808Z,4.47
2023-04-05T11:20:43.991Z,2.97
2023-04-05T11:23:12.395Z,4.50
2023-04-05T11:25:41.459Z,4.30
2023-04-05T11:28:09.979Z,2.17
2023-04-05T11:30:56.972Z,6.10
2023-04-05T11:33:38.106Z,3.00
2023-04-05T11:36:06.414Z,3.83
2023-04-05T11:38:34.426Z,2.50
2023-04-05T11:41:12.682Z,3.87
2023-04-05T11:43:42.517Z,3.50
2023-04-05T11:46:12.521Z,3.73
2023-04-05T11:48:42.097Z,3.77
2023-04-05T11:51:10.855Z,3.00
2023-04-05T11:53:39.014Z,2.50
2023-04-05T11:56:12.809Z,3.63
2023-04-05T11:58:40.908Z,3.50
2023-04-05T12:01:09.109Z,3.20
2023-04-05T12:03:38.673Z,2.93
2023-04-05T12:06:07.882Z,3.47
2023-04-05T12:08:39.775Z,2.50
2023-04-05T12:11:08.481Z,2.63
2023-04-05T12:13:36.506Z,2.60
2023-04-05T12:16:05.670Z,3.10
2023-04-05T12:18:34.091Z,2.67
2023-04-05T12:21:07.402Z,3.23
2023-04-05T12:23:35.994Z,2.90
2023-04-05T12:26:04.224Z,2.13
2023-04-05T12:28:53.700Z,2.80
2023-04-05T12:31:36.679Z,2.33
2023-04-05T12:34:04.714Z,2.73
2023-04-05T12:36:34.020Z,2.43
2023-04-05T12:39:02.116Z,1.60
2023-04-05T12:41:30.819Z,2.60
2023-04-05T12:44:01.837Z,2.10
2023-04-05T12:46:40.453Z,2.47
2023-04-05T12:49:08.378Z,1.47
2023-04-05T12:51:37.652Z,1.87
2023-04-05T12:54:05.805Z,2.30
2023-04-05T12:56:33.852Z,1.57
2023-04-05T12:59:01.797Z,1.83
2023-04-05T13:01:31.343Z,2.20
2023-04-05T13:04:13.049Z,2.47
2023-04-05T13:06:47.550Z,2.53
2023-04-05T13:09:15.854Z,2.00
2023-04-05T13:11:43.787Z,2.67
2023-04-05T13:14:11.726Z,2.00
2023-04-05T13:16:39.925Z,1.80
2023-04-05T13:19:08.042Z,2.63
2023-04-05T13:21:36.033Z,2.60
2023-04-05T13:24:05.682Z,3.20
2023-04-05T13:26:33.643Z,2.80
2023-04-05T13:29:01.931Z,2.10
2023-04-05T13:31:29.933Z,2.33
2023-04-05T13:33:58.010Z,2.00
2023-04-05T13:36:26.176Z,3.17
2023-04-05T13:38:54.137Z,1.70
2023-04-05T13:41:23.522Z,2.40
2023-04-05T13:43:52.104Z,2.73
2023-04-05T13:46:20.147Z,3.40
2023-04-05T13:48:48.104Z,3.43
2023-04-05T13:51:16.143Z,3.33
2023-04-05T13:53:44.148Z,3.30
2023-04-05T13:56:12.077Z,3.20
2023-04-05T13:58:41.517Z,3.20
2023-04-05T14:01:09.457Z,3.10
2023-04-05T14:03:37.541Z,2.50
2023-04-05T14:06:05.747Z,2.27
2023-04-05T14:08:33.712Z,2.90
2023-04-05T14:11:01.680Z,2.77
2023-04-05T14:13:29.611Z,2.60
2023-04-05T14:15:59.063Z,3.23
2023-04-05T14:18:27.250Z,2.20
2023-04-05T14:20:56.459Z,2.87
2023-04-05T14:23:26.995Z,2.80
2023-04-05T14:25:54.996Z,3.67
2023-04-05T14:28:23.007Z,5.77
2023-04-05T14:30:51.109Z,2.20
2023-04-05T14:33:20.449Z,3.50
2023-04-05T14:35:48.728Z,2.90
2023-04-05T14:38:16.744Z,3.90
2023-04-05T14:40:44.721Z,5.10
2023-04-05T14:43:12.703Z,3.30
2023-04-05T14:45:40.868Z,2.90
2023-04-05T14:48:08.926Z,3.03
2023-04-05T14:50:38.596Z,3.40
2023-04-05T14:53:06.708Z,3.43
2023-04-05T14:55:34.734Z,4.03
2023-04-05T14:58:02.701Z,3.77
2023-04-05T15:00:30.722Z,3.50
2023-04-05T15:02:59.297Z,2.43
2023-04-05T15:05:27.444Z,3.00
2023-04-05T15:07:56.816Z,3.17
2023-04-05T15:10:24.781Z,3.63
2023-04-05T15:12:52.727Z,3.60
2023-04-05T15:15:20.838Z,5.83
2023-04-05T15:17:48.858Z,4.77
2023-04-05T15:20:17.109Z,3.73
2023-04-05T15:22:45.144Z,3.73
2023-04-05T15:25:14.659Z,3.80
2023-04-05T15:27:42.669Z,4.50
2023-04-05T15:30:11.574Z,3.57
2023-04-05T15:32:39.612Z,3.73
2023-04-05T15:35:07.996Z,3.00
2023-04-05T15:37:35.956Z,3.37
2023-04-05T15:40:04.120Z,3.90
2023-04-05T15:42:34.509Z,4.60
2023-04-05T15:45:02.504Z,3.80
2023-04-05T15:47:30.589Z,3.67
2023-04-05T15:49:58.599Z,4.37
2023-04-05T15:52:26.623Z,4.33
2023-04-05T15:54:54.612Z,3.80
2023-04-05T15:57:24.216Z,4.33
2023-04-05T15:59:54.503Z,5.70
2023-04-05T16:02:22.594Z,5.97
2023-04-05T16:04:50.737Z,7.43
2023-04-05T16:07:18.722Z,6.63
2023-04-05T16:09:46.684Z,7.00
2023-04-05T16:12:14.683Z,6.63
2023-04-05T16:14:42.658Z,5.30
2023-04-05T16:17:12.107Z,6.43
2023-04-05T16:19:40.156Z,7.00
2023-04-05T16:22:08.172Z,4.77
2023-04-05T16:24:36.895Z,5.60
2023-04-05T16:27:04.917Z,5.70
2023-04-05T16:29:33.183Z,5.50
2023-04-05T16:32:01.268Z,5.03
2023-04-05T16:34:30.707Z,4.60
2023-04-05T16:36:58.696Z,5.13
2023-04-05T16:39:26.652Z,4.60
2023-04-05T16:41:54.860Z,4.03
2023-04-05T16:44:22.856Z,4.67
2023-04-05T16:46:52.206Z,6.30
2023-04-05T16:49:20.298Z,5.37
2023-04-05T16:51:49.690Z,6.67
2023-04-05T16:54:17.820Z,5.83
2023-04-05T16:56:45.809Z,7.77
2023-04-05T16:59:13.861Z,6.67
2023-04-05T17:01:41.962Z,5.07
2023-04-05T17:04:10.048Z,5.83
2023-04-05T17:06:38.142Z,6.27
2023-04-05T17:09:07.502Z,8.30
2023-04-05T17:11:35.426Z,6.60
2023-04-05T17:14:03.452Z,8.17
2023-04-05T17:16:31.469Z,8.43
2023-04-05T17:18:59.462Z,7.53
2023-04-05T17:21:27.442Z,6.57
2023-04-05T17:23:55.536Z,7.03
2023-04-05T17:26:25.168Z,8.03
2023-04-05T17:28:53.196Z,7.73
2023-04-05T17:31:21.416Z,6.37
2023-04-05T17:33:49.559Z,6.40
2023-04-05T17:36:17.846Z,6.17
2023-04-05T17:38:45.929Z,7.37
2023-04-05T17:41:13.969Z,9.70
2023-04-05T17:43:43.310Z,8.00
2023-04-05T17:46:13.933Z,7.37
2023-04-05T17:48:42.169Z,6.77
2023-04-05T17:51:10.355Z,5.70
2023-04-05T17:53:38.350Z,6.07
2023-04-05T17:56:06.750Z,6.60
2023-04-05T17:58:34.776Z,6.90
2023-04-05T18:01:04.291Z,7.20
2023-04-05T18:03:32.431Z,8.10
2023-04-05T18:06:00.460Z,6.43
2023-04-05T18:08:29.276Z,6.13
2023-04-05T18:10:58.022Z,6.60
2023-04-05T18:13:26.433Z,6.00
2023-04-05T18:15:54.802Z,4.80
2023-04-05T18:18:24.306Z,5.10
2023-04-05T18:20:52.312Z,5.60
2023-04-05T18:23:22.506Z,4.23
2023-04-05T18:25:50.543Z,5.53
2023-04-05T18:28:22.730Z,5.30
2023-04-05T18:30:51.782Z,5.30
2023-04-05T18:33:19.841Z,4.57
2023-04-05T18:35:51.489Z,6.40
2023-04-05T18:38:19.691Z,5.73
2023-04-05T18:40:47.721Z,4.60
2023-04-05T18:43:15.747Z,4.77
2023-04-05T18:45:43.794Z,6.03
2023-04-05T18:48:12.433Z,4.10
2023-04-05T18:50:40.462Z,3.90
2023-04-05T18:53:09.876Z,4.37
2023-04-05T18:55:38.081Z,4.07
2023-04-05T18:58:06.039Z,4.73
2023-04-05T19:00:35.077Z,4.47
2023-04-05T19:03:03.113Z,4.17
2023-04-05T19:05:31.339Z,5.00
2023-04-05T19:07:59.354Z,4.50
2023-04-05T19:10:28.734Z,4.73
2023-04-05T19:12:56.718Z,3.30
2023-04-05T19:15:24.857Z,4.50
2023-04-05T19:17:53.006Z,4.93
2023-04-05T19:20:21.127Z,4.63
2023-04-05T19:22:49.238Z,4.10
2023-04-05T19:25:17.425Z,4.20
2023-04-05T19:27:46.805Z,5.17
2023-04-05T19:30:14.987Z,4.57
2023-04-05T19:32:43.057Z,3.43
2023-04-05T19:35:11.406Z,4.83
2023-04-05T19:37:39.564Z,4.00
2023-04-05T19:40:08.910Z,5.43
2023-04-05T19:42:36.875Z,5.57
2023-04-05T19:45:08.443Z,5.30
2023-04-05T19:47:37.490Z,4.10
2023-04-05T19:50:15.578Z,3.67
2023-04-05T19:52:46.508Z,4.00
2023-04-05T19:55:34.455Z,3.60
2023-04-05T19:58:03.468Z,4.00
2023-04-05T20:00:34.828Z,4.60
2023-04-05T20:03:02.938Z,3.60
2023-04-05T20:05:58.422Z,6.50
2023-04-05T20:08:26.409Z,5.27
2023-04-05T20:10:54.352Z,6.50
2023-04-05T20:13:22.328Z,6.63
2023-04-05T20:15:51.913Z,6.20
2023-04-05T20:18:25.120Z,6.00
2023-04-05T20:20:53.492Z,5.37
2023-04-05T20:23:22.620Z,4.30
2023-04-05T20:25:51.279Z,4.27
2023-04-05T20:28:38.172Z,4.20
2023-04-05T20:31:12.432Z,5.13
2023-04-05T20:33:47.669Z,4.37
2023-04-05T20:36:18.237Z,4.70
2023-04-05T20:38:46.476Z,3.63
2023-04-05T20:41:14.695Z,3.97
2023-04-05T20:43:42.856Z,3.27
2023-04-05T20:46:12.836Z,3.83
2023-04-05T20:48:40.881Z,3.33
2023-04-05T20:51:09.254Z,3.03
2023-04-05T20:53:37.467Z,4.00
2023-04-05T20:56:06.521Z,3.17
2023-04-05T20:58:34.535Z,3.43
2023-04-05T21:01:03.546Z,4.07
2023-04-05T21:03:33.960Z,3.33
2023-04-05T21:08:47.622Z,4.10
2023-04-05T21:11:15.584Z,4.00
2023-04-05T21:13:43.637Z,4.10
2023-04-05T21:16:12.020Z,3.73
2023-04-05T21:18:41.581Z,3.40
2023-04-05T21:21:09.545Z,3.20
2023-04-05T21:23:37.593Z,2.83
2023-04-05T21:26:06.146Z,3.33
2023-04-05T21:28:34.122Z,3.40
2023-04-05T21:31:02.192Z,4.00
2023-04-05T21:33:30.257Z,2.90
2023-04-05T21:35:59.718Z,3.00
2023-04-05T21:38:27.710Z,3.07
2023-04-05T21:40:56.394Z,3.30
2023-04-05T21:43:24.420Z,3.77
2023-04-05T21:45:53.002Z,2.60
2023-04-05T21:48:21.301Z,4.03
2023-04-05T21:50:49.304Z,3.63
2023-04-05T21:53:18.929Z,3.70
2023-04-05T21:55:47.138Z,2.80
2023-04-05T21:58:15.180Z,3.47
2023-04-05T22:00:43.268Z,4.77
2023-04-05T22:03:11.759Z,2.90
2023-04-05T22:05:39.848Z,3.33
2023-04-05T22:08:08.282Z,3.10
2023-04-05T22:10:38.869Z,2.67
2023-04-05T22:13:07.070Z,3.33
2023-04-05T22:15:35.112Z,2.57
2023-04-05T22:18:04.050Z,2.53
2023-04-05T22:20:32.396Z,2.80
2023-04-05T22:23:00.472Z,2.50
2023-04-05T22:25:28.490Z,3.73
2023-04-05T22:28:00.227Z,3.73
2023-04-05T22:30:28.620Z,3.63
2023-04-05T22:32:56.880Z,3.50
2023-04-05T22:35:25.003Z,3.87
2023-04-05T22:37:53.012Z,3.17
2023-04-05T22:40:26.312Z,2.80
2023-04-05T22:42:54.548Z,3.10
2023-04-05T22:45:25.123Z,2.87
2023-04-05T22:47:53.215Z,2.70
2023-04-05T22:50:21.508Z,2.80
2023-04-05T22:52:49.461Z,3.20
2023-04-05T22:55:17.622Z,3.80
2023-04-05T22:57:45.628Z,3.37
2023-04-05T23:00:14.892Z,3.00
2023-04-05T23:02:44.324Z,2.47
2023-04-05T23:05:13.169Z,3.40
2023-04-05T23:07:41.200Z,2.80
2023-04-05T23:10:09.806Z,3.30
2023-04-05T23:12:37.813Z,3.73
2023-04-05T23:15:07.094Z,3.40
2023-04-05T23:17:37.840Z,2.93
2023-04-05T23:20:08.348Z,3.97
2023-04-05T23:22:36.844Z,2.67
2023-04-05T23:25:04.926Z,3.67
2023-04-05T23:27:32.904Z,3.10
2023-04-05T23:30:00.932Z,3.53
2023-04-05T23:32:28.981Z,3.20
2023-04-05T23:34:57.082Z,2.63
2023-04-05T23:37:26.407Z,3.30
2023-04-05T23:39:54.424Z,3.70
2023-04-05T23:42:22.388Z,3.10
2023-04-05T23:44:50.446Z,4.30
2023-04-05T23:47:18.465Z,2.87
2023-04-05T23:49:46.461Z,3.20
2023-04-05T23:52:14.414Z,3.70
2023-04-05T23:54:43.747Z,3.83
2023-04-05T23:57:11.751Z,3.10
2023-04-05T23:59:39.808Z,3.37
